Terminal Aerodrome Forecast
Issued by NWS

Home | Current Version | Previous Version | Text Only | Print | Product List | Glossary On
Versions: 1 2 3 4 5 6 7 8 9 10 11 12 13 14 15 16 17 18 19 20 21
000
FTUS45 KPSR 101700
TAFBLH
TAF
KBLH 101739Z 1018/1118 18011KT P6SM SCT100 BKN200
     FM101900 18014G20KT P6SM SCT100 BKN200
     FM110100 20007KT P6SM SCT200=

USA.gov is the U.S. government's official web portal to all federal, state and local government web resources and services.